Latest Weather Observations for Telfer

IDW60801

Issued at 11:03 pm WST Thursday 29 September 2016 (issued every 30 minutes, with the page automatically refreshed every 10 minutes)

About weather observations | Map of weather stations | Latest weather observations for WA | Other Formats
Station Details ID: 013030 Name: TELFER AERO Lat: -21.71 Lon: 122.23 Height: 291.9 m
Data from the previous 72 hours. | See also: Recent months at Telfer
Date/Time
WST
Temp
°C
App
Temp
°C
Dew
Point
°C
Rel
Hum
%
Delta-T
°C
Wind Press
QNH
hPa
Press
MSL
hPa
Rain since
9am
mm
Dir  Spd
km/h
Gust
km/h
Spd
kts
Gust
kts
29/11:00pm 15.3 9.8 -9.6 17 8.7 SE 13 15 7 8 1013.2 1011.7 0.0
29/10:30pm 16.4 10.9 -10.3 15 9.3 SE 13 15 7 8 1013.5 1012.0 0.0
29/10:00pm 18.8 13.6 -10.2 13 10.5 SE 11 13 6 7 1013.6 1012.1 0.0
29/09:30pm 20.2 14.2 -11.2 11 11.3 SSE 15 17 8 9 1013.9 1012.4 0.0
29/09:00pm 20.4 15.9 -11.0 11 11.3 SE 7 9 4 5 1014.2 1012.7 0.0
29/08:30pm 21.3 16.4 -11.5 10 11.9 SE 9 11 5 6 1014.0 1012.5 0.0
29/08:00pm 21.3 17.1 -10.3 11 11.7 ESE 6 7 3 4 1013.9 1012.4 0.0
29/07:30pm 21.3 17.1 -10.3 11 11.7 SE 6 7 3 4 1013.6 1012.1 0.0
29/07:00pm 22.3 17.5 -10.7 10 12.3 ESE 9 11 5 6 1012.9 1011.5 0.0
29/06:30pm 24.0 18.8 -10.8 9 13.1 ESE 11 13 6 7 1012.7 1011.3 0.0
29/06:00pm 25.7 19.5 -9.5 9 13.9 ESE 17 24 9 13 1012.4 1010.9 0.0
29/05:30pm 27.1 19.9 -9.9 8 14.7 ESE 22 32 12 17 1011.8 1010.3 0.0
29/05:00pm 27.8 20.6 -9.4 8 15.0 SE 22 30 12 16 1011.8 1010.3 0.0
29/04:30pm 28.3 20.4 -9.1 8 15.2 SE 26 33 14 18 1011.8 1010.3 0.0
29/04:00pm 28.5 20.6 -8.9 8 15.3 SE 26 37 14 20 1011.7 1010.2 0.0
29/03:30pm 28.8 21.3 -8.7 8 15.4 SE 24 32 13 17 1011.9 1010.4 0.0
29/03:00pm 28.6 21.1 -8.8 8 15.4 SE 24 41 13 22 1012.0 1010.5 0.0
29/02:30pm 28.3 20.8 -9.1 8 15.2 ESE 24 33 13 18 1012.2 1010.7 0.0
29/02:00pm 27.8 19.9 -9.4 8 15.0 SE 26 37 14 20 1012.7 1011.3 0.0
29/01:30pm 28.1 20.3 -7.7 9 14.9 ESE 26 35 14 19 1013.4 1011.9 0.0
29/01:00pm 26.6 18.7 -8.8 9 14.2 ESE 26 37 14 20 1013.9 1012.4 0.0
29/12:30pm 26.5 18.7 -7.6 10 14.0 SE 26 37 14 20 1014.4 1012.9 0.0
29/12:00pm 25.7 17.6 -6.9 11 13.5 ESE 28 43 15 23 1014.9 1013.4 0.0
29/11:30am 25.3 16.4 -7.2 11 13.3 ESE 32 41 17 22 1015.4 1013.9 0.0
29/11:00am 23.8 14.9 -7.3 12 12.5 ESE 32 44 17 24 1016.0 1014.6 0.0
29/10:32am 23.2 13.8 -6.7 13 12.1 ESE 35 57 19 31 1016.3 1014.9 0.0
29/10:30am 22.7 13.2 -7.1 13 11.9 ESE 35 50 19 27 1016.4 1015.0 0.0
29/10:00am 22.2 12.8 -6.5 14 11.5 ESE 35 46 19 25 1017.1 1015.6 0.0
29/09:30am 21.4 12.0 -6.3 15 11.1 ESE 35 46 19 25 1017.1 1015.6 0.0
29/09:00am 20.2 10.1 -5.6 17 10.3 ESE 39 50 21 27 1017.3 1015.8 0.0
29/08:30am 19.5 9.1 -5.4 18 10.0 ESE 41 50 22 27 1017.5 1016.0 0.0
29/08:00am 18.3 7.4 -5.7 19 9.4 ESE 43 56 23 30 1017.5 1016.0 0.0
29/07:30am 17.5 7.1 -5.0 21 8.9 ESE 41 57 22 31 1017.3 1015.8 0.0
29/07:00am 16.2 6.1 -5.5 22 8.4 ESE 39 52 21 28 1016.9 1015.4 0.0
29/06:30am 15.1 5.8 -5.3 24 7.8 SE 35 44 19 24 1016.6 1015.2 0.0
29/06:00am 14.5 5.7 -5.8 24 7.6 ESE 32 37 17 20 1016.2 1014.8 0.0
29/05:30am 14.4 5.6 -5.9 24 7.6 SE 32 39 17 21 1015.8 1014.4 0.0
29/05:00am 14.9 6.9 -5.5 24 7.8 SE 28 37 15 20 1015.6 1014.2 0.0
29/04:30am 15.4 7.4 -5.6 23 8.0 ESE 28 35 15 19 1015.0 1013.5 0.0
29/04:00am 16.1 7.7 -5.6 22 8.3 ESE 30 37 16 20 1014.7 1013.2 0.0
29/03:30am 16.3 8.7 -5.4 22 8.4 ESE 26 33 14 18 1014.4 1012.9 0.0
29/03:00am 16.7 9.1 -5.7 21 8.7 SE 26 33 14 18 1014.2 1012.7 0.0
29/02:30am 17.3 9.4 -5.2 21 8.8 SE 28 35 15 19 1014.3 1012.8 0.0
29/02:00am 17.4 10.2 -5.1 21 8.9 SE 24 30 13 16 1014.3 1012.8 0.0
29/01:30am 17.8 10.6 -5.4 20 9.1 SE 24 30 13 16 1014.4 1012.9 0.0
29/01:00am 18.4 11.2 -5.6 19 9.5 SE 24 30 13 16 1014.5 1013.0 0.0
29/12:30am 18.7 11.7 -7.6 16 10.0 SE 22 28 12 15 1014.8 1013.3 0.0
29/12:00am 18.7 11.5 -9.3 14 10.3 SE 22 26 12 14 1014.9 1013.4 0.0
 
Date/Time
WST
Temp
°C
App
Temp
°C
Dew
Point
°C
Rel
Hum
%
Delta-T
°C
Wind Press
QNH
hPa
Press
MSL
hPa
Rain since
9am
mm
Dir  Spd
km/h
Gust
km/h
Spd
kts
Gust
kts
28/11:30pm 19.0 12.2 -9.1 14 10.4 SE 20 22 11 12 1015.0 1013.5 0.0
28/11:00pm 20.3 13.1 -9.0 13 11.0 SE 22 28 12 15 1015.1 1013.6 0.0
28/10:30pm 20.9 13.8 -8.5 13 11.2 SSE 22 26 12 14 1015.0 1013.5 0.0
28/10:00pm 21.7 15.1 -6.9 14 11.4 SSE 20 28 11 15 1015.0 1013.5 0.0
28/09:30pm 22.4 15.7 -4.6 16 11.3 SSE 22 28 12 15 1014.9 1013.4 0.0
28/09:00pm 23.1 17.0 -4.1 16 11.6 SSE 19 22 10 12 1014.7 1013.2 0.0
28/08:30pm 23.4 17.3 -3.8 16 11.7 SSE 19 22 10 12 1014.5 1013.0 0.0
28/08:00pm 24.0 18.2 -4.2 15 12.1 SE 17 20 9 11 1014.2 1012.7 0.0
28/07:30pm 25.2 18.3 -6.2 12 13.1 SE 22 28 12 15 1013.9 1012.4 0.0
28/07:00pm 26.8 20.3 -6.1 11 13.9 SSE 20 26 11 14 1013.5 1012.0 0.0
28/06:30pm 27.6 21.8 -4.3 12 14.1 SSE 17 20 9 11 1012.9 1011.5 0.0
28/06:00pm 28.3 23.5 -2.7 13 14.1 SSE 13 15 7 8 1012.4 1010.9 0.0
28/05:30pm 29.7 23.7 -2.7 12 14.9 SSE 19 24 10 13 1012.1 1010.6 0.0
28/05:00pm 30.3 23.8 -2.2 12 15.2 S 22 32 12 17 1011.7 1010.2 0.0
28/04:30pm 31.2 25.8 -1.5 12 15.6 S 17 33 9 18 1011.4 1009.9 0.0
28/04:00pm 31.0 24.4 -0.6 13 15.3 SSE 24 39 13 21 1011.2 1009.7 0.0
28/03:30pm 31.5 25.2 -1.3 12 15.7 SSE 22 39 12 21 1011.2 1009.7 0.0
28/03:00pm 31.3 24.7 -0.4 13 15.4 SSE 24 33 13 18 1011.4 1009.9 0.0
28/02:30pm 31.2 25.0 -0.5 13 15.3 S 22 33 12 18 1011.6 1010.1 0.0
28/02:00pm 30.8 25.0 0.2 14 15.0 SSE 20 32 11 17 1012.0 1010.5 0.0
28/01:30pm 31.0 25.1 1.4 15 14.8 SSE 22 32 12 17 1012.2 1010.7 0.0
28/01:00pm 30.2 24.7 0.7 15 14.5 SSE 19 28 10 15 1012.5 1011.0 0.0
28/12:30pm 29.6 23.6 1.1 16 14.0 SSE 22 33 12 18 1013.0 1011.6 0.0
28/12:00pm 29.6 24.2 1.1 16 14.0 SSE 19 35 10 19 1013.5 1012.0 0.0
28/11:30am 28.8 23.1 0.5 16 13.7 SSE 20 30 11 16 1014.2 1012.7 0.0
28/11:00am 28.0 22.3 0.7 17 13.2 SSE 20 30 11 16 1014.6 1013.1 0.0
28/10:30am 27.5 21.1 1.1 18 12.8 SSE 24 37 13 20 1014.9 1013.4 0.0
28/10:00am 27.4 20.8 1.8 19 12.6 SSE 26 35 14 19 1015.1 1013.6 0.0
28/09:30am 26.4 19.2 0.9 19 12.2 SSE 28 39 15 21 1015.3 1013.8 0.0
28/09:00am 25.4 18.7 1.5 21 11.5 SSE 26 33 14 18 1015.4 1013.9 0.0
28/08:30am 23.9 17.1 0.9 22 10.8 SSE 26 33 14 18 1015.4 1013.9 0.0
28/08:00am 23.6 17.3 1.3 23 10.5 S 24 33 13 18 1015.1 1013.6 0.0
28/07:30am 23.0 16.8 1.9 25 10.1 S 24 35 13 19 1014.9 1013.4 0.0
28/07:00am 21.5 18.6 8.1 42 7.1 S 13 22 7 12 1014.4 1012.9 0.0
28/06:30am 20.7 18.0 10.2 51 5.8 SW 15 19 8 10 1014.1 1012.6 0.0
28/06:00am 21.1 19.1 11.4 54 5.4 SW 13 19 7 10 1013.3 1011.8 0.0
28/05:30am 20.5 19.6 11.4 56 5.1 W 7 11 4 6 1012.6 1011.2 0.0
28/05:00am 20.2 19.0 11.7 58 4.8 NW 9 13 5 7 1012.0 1010.5 0.0
28/04:30am 20.9 17.8 12.1 57 5.0 WNW 20 26 11 14 1011.7 1010.2 0.0
28/04:00am 21.1 18.0 12.3 57 5.0 W 20 24 11 13 1011.4 1009.9 0.0
28/03:30am 20.9 18.5 12.6 59 4.8 WNW 17 22 9 12 1010.9 1009.4 0.0
28/03:00am 20.6 19.2 13.3 63 4.2 WNW 13 17 7 9 1010.9 1009.4 0.0
28/02:30am 20.6 19.6 13.3 63 4.2 WNW 11 19 6 10 1010.7 1009.2 0.0
28/02:00am 20.8 19.8 13.3 62 4.4 NW 11 15 6 8 1010.3 1008.8 0.0
28/01:30am 21.3 19.8 13.2 60 4.7 NW 13 19 7 10 1010.8 1009.3 0.0
28/01:00am 21.7 19.9 13.3 59 4.9 NW 15 20 8 11 1010.9 1009.4 0.0
28/12:30am 22.0 20.1 13.1 57 5.2 NW 15 20 8 11 1011.3 1009.8 0.0
28/12:00am 22.4 20.2 13.2 56 5.4 NW 17 22 9 12 1011.4 1009.9 0.0
 
Date/Time
WST
Temp
°C
App
Temp
°C
Dew
Point
°C
Rel
Hum
%
Delta-T
°C
Wind Press
QNH
hPa
Press
MSL
hPa
Rain since
9am
mm
Dir  Spd
km/h
Gust
km/h
Spd
kts
Gust
kts
27/11:30pm 22.7 20.4 12.9 54 5.7 NNW 17 22 9 12 1011.7 1010.2 0.0
27/11:00pm 23.0 20.8 13.2 54 5.7 NNW 17 24 9 13 1011.9 1010.4 0.0
27/10:30pm 23.4 20.4 12.7 51 6.2 NNW 20 28 11 15 1012.0 1010.5 0.0
27/10:00pm 23.6 21.0 10.6 44 7.3 NNW 15 22 8 12 1012.2 1010.7 0.0
27/09:30pm 23.7 21.6 9.7 41 7.7 NNW 11 15 6 8 1012.0 1010.5 0.0
27/09:00pm 23.6 21.2 9.9 42 7.6 N 13 17 7 9 1011.9 1010.4 0.0
27/08:30pm 23.6 22.0 10.3 43 7.4 NNW 9 13 5 7 1012.0 1010.5 0.0
27/08:00pm 24.1 22.9 10.4 42 7.7 NW 7 9 4 5 1012.1 1010.6 0.0
27/07:30pm 24.2 23.3 11.2 44 7.4 W 7 9 4 5 1012.2 1010.7 0.0
27/07:00pm 24.4 23.2 10.3 41 7.9 NNW 7 9 4 5 1011.9 1010.4 0.0
27/06:30pm 24.6 23.5 10.8 42 7.8 NW 7 9 4 5 1011.7 1010.2 0.0
27/06:00pm 25.0 23.7 10.1 39 8.3 NW 7 9 4 5 1011.3 1009.8 0.0
27/05:30pm 25.6 23.8 9.4 36 9.0 NW 9 13 5 7 1011.3 1009.8 0.0
27/05:00pm 25.8 23.9 9.2 35 9.2 WNW 9 11 5 6 1010.8 1009.3 0.0
27/04:30pm 25.8 24.9 9.2 35 9.2 W 4 7 2 4 1010.6 1009.1 0.0
27/04:00pm 25.6 24.1 9.0 35 9.2 WSW 7 9 4 5 1010.6 1009.1 0.0
27/03:30pm 25.4 24.1 9.3 36 8.9 WNW 6 9 3 5 1010.6 1009.1 0.0
27/03:00pm 25.0 23.4 8.9 36 8.8 NNW 7 11 4 6 1010.8 1009.3 0.0
27/02:30pm 24.6 23.2 9.7 39 8.3 NNW 7 11 4 6 1010.8 1009.3 0.0
27/02:00pm 24.2 22.1 11.2 44 7.4 N 13 17 7 9 1011.1 1009.6 0.0
27/01:30pm 25.6 24.1 8.6 34 9.3 NE 6 9 3 5 1011.4 1009.9 0.0
27/01:00pm 25.3 23.3 10.0 38 8.6 NNW 11 19 6 10 1012.0 1010.5 0.0
27/12:30pm 26.7 24.3 5.1 25 11.2 NE 7 15 4 8 1012.2 1010.7 0.0
27/12:00pm 27.0 24.0 2.1 20 12.3 ENE 7 13 4 7 1012.3 1010.8 0.0
27/11:30am 27.2 23.0 1.6 19 12.5 ENE 13 20 7 11 1012.9 1011.5 0.0
27/11:00am 26.7 22.0 1.2 19 12.3 E 15 20 8 11 1013.5 1012.0 0.0
27/10:30am 26.0 21.3 0.6 19 12.1 ESE 15 20 8 11 1014.2 1012.7 0.0
27/10:00am 25.4 19.9 0.8 20 11.7 ESE 19 26 10 14 1014.5 1013.0 0.0
27/09:30am 25.6 20.0 1.0 20 11.8 ESE 20 26 11 14 1014.9 1013.4 0.0
27/09:00am 24.9 18.8 0.4 20 11.5 ESE 22 30 12 16 1014.6 1013.1 0.0
27/08:30am 23.5 17.0 0.6 22 10.7 ESE 24 28 13 15 1014.5 1013.0 0.0
27/08:00am 22.9 16.4 0.1 22 10.5 SE 24 32 13 17 1014.3 1012.8 0.0
27/07:30am 22.1 14.8 0.0 23 10.1 ESE 28 33 15 18 1014.2 1012.7 0.0
27/07:00am 21.4 14.9 0.0 24 9.7 SE 24 32 13 17 1014.0 1012.5 0.0
27/06:30am 21.3 15.1 -0.1 24 9.7 SE 22 28 12 15 1013.3 1011.8 0.0
27/06:00am 21.3 15.7 -0.1 24 9.7 SE 19 24 10 13 1013.3 1011.8 0.0
27/05:30am 21.4 14.9 0.6 25 9.6 SE 24 30 13 16 1012.8 1011.4 0.0
27/05:00am 21.1 16.7 2.9 30 8.7 SE 15 17 8 9 1012.8 1011.4 0.0
27/04:30am 21.3 17.0 3.5 31 8.6 SSE 15 20 8 11 1012.3 1010.8 0.0
27/04:00am 22.9 16.6 1.3 24 10.2 SE 24 35 13 19 1012.3 1010.8 0.0
27/03:30am 22.5 18.2 0.9 24 10.1 SE 13 17 7 9 1012.2 1010.7 0.0
27/03:00am 22.8 18.7 0.0 22 10.5 SE 11 17 6 9 1012.1 1010.6 0.0
27/02:30am 23.2 17.9 -0.3 21 10.8 SSE 17 20 9 11 1011.7 1010.2 0.0
27/02:00am 23.4 18.2 -0.1 21 10.8 S 17 26 9 14 1012.0 1010.5 0.0
27/01:30am 23.0 18.2 0.2 22 10.5 SSE 15 19 8 10 1012.0 1010.5 0.0
27/01:00am 22.7 19.6 1.1 24 10.1 S 7 9 4 5 1012.7 1011.3 0.0
27/12:30am 23.1 19.5 0.9 23 10.4 SE 9 13 5 7 1012.5 1011.0 0.0
27/12:00am 23.1 20.1 2.0 25 10.1 SE 7 11 4 6 1012.7 1011.3 0.0
 
Date/Time
WST
Temp
°C
App
Temp
°C
Dew
Point
°C
Rel
Hum
%
Delta-T
°C
Wind Press
QNH
hPa
Press
MSL
hPa
Rain since
9am
mm
Dir  Spd
km/h
Gust
km/h
Spd
kts
Gust
kts
26/11:30pm 23.3 19.2 2.2 25 10.1 SE 13 17 7 9 1012.7 1011.3 0.0

Other Formats:

Comma delimited format used in spreadsheet applications
http://www.bom.gov.au/fwo/IDW60801/IDW60801.94319.axf

JavaScript Object Notation format (JSON) in row-major order
http://www.bom.gov.au/fwo/IDW60801/IDW60801.94319.json